createdAt,value
2018-08-19T00:01:55.638Z,22.99
2018-08-19T00:04:23.350Z,23.00
2018-08-19T00:06:51.084Z,22.97
2018-08-19T00:09:18.824Z,22.89
2018-08-19T00:11:46.546Z,23.03
2018-08-19T00:14:28.144Z,23.09
2018-08-19T00:16:58.194Z,23.04
2018-08-19T00:19:26.620Z,23.00
2018-08-19T00:21:54.852Z,22.97
2018-08-19T00:24:22.683Z,23.09
2018-08-19T00:26:50.526Z,23.03
2018-08-19T00:29:24.476Z,22.93
2018-08-19T00:31:53.275Z,22.78
2018-08-19T00:34:26.744Z,22.69
2018-08-19T00:36:54.618Z,22.66
2018-08-19T00:39:29.043Z,22.59
2018-08-19T00:42:00.764Z,22.53
2018-08-19T00:44:29.195Z,22.54
2018-08-19T00:46:56.954Z,22.63
2018-08-19T00:49:24.683Z,22.66
2018-08-19T00:51:58.409Z,22.63
2018-08-19T00:54:27.502Z,22.67
2018-08-19T00:56:56.056Z,22.74
2018-08-19T00:59:24.973Z,22.69
2018-08-19T01:01:52.722Z,22.69
2018-08-19T01:04:20.670Z,22.66
2018-08-19T01:06:54.431Z,22.62
2018-08-19T01:09:29.513Z,22.59
2018-08-19T01:11:57.423Z,22.55
2018-08-19T01:14:34.795Z,22.61
2018-08-19T01:17:02.746Z,22.73
2018-08-19T01:19:30.415Z,22.56
2018-08-19T01:21:58.139Z,22.56
2018-08-19T01:24:25.844Z,22.53
2018-08-19T01:26:53.553Z,22.51
2018-08-19T01:29:36.735Z,22.54
2018-08-19T01:32:09.931Z,22.58
2018-08-19T01:34:37.986Z,22.54
2018-08-19T01:37:05.874Z,22.51
2018-08-19T01:39:36.606Z,22.56
2018-08-19T01:42:05.514Z,22.58
2018-08-19T01:44:33.339Z,22.58
2018-08-19T01:47:01.096Z,22.63
2018-08-19T01:49:28.811Z,22.67
2018-08-19T01:51:56.791Z,22.63
2018-08-19T01:54:24.510Z,22.62
2018-08-19T01:57:00.162Z,22.54
2018-08-19T01:59:31.323Z,22.52
2018-08-19T02:02:01.239Z,22.61
2018-08-19T02:04:30.632Z,22.60
2018-08-19T02:06:59.243Z,22.48
2018-08-19T02:09:26.993Z,22.47
2018-08-19T02:11:55.865Z,22.48
2018-08-19T02:14:23.941Z,22.50
2018-08-19T02:16:52.616Z,22.45
2018-08-19T02:19:20.378Z,22.42
2018-08-19T02:21:54.057Z,22.50
2018-08-19T02:24:21.941Z,22.47
2018-08-19T02:26:49.638Z,22.32
2018-08-19T02:29:32.855Z,22.23
2018-08-19T02:32:02.710Z,22.24
2018-08-19T02:34:31.466Z,22.30
2018-08-19T02:37:02.698Z,22.25
2018-08-19T02:39:30.951Z,22.23
2018-08-19T02:41:58.919Z,22.25
2018-08-19T02:44:26.639Z,22.28
2018-08-19T02:46:54.346Z,22.27
2018-08-19T02:49:22.255Z,22.24
2018-08-19T02:51:49.935Z,22.20
2018-08-19T02:54:17.648Z,22.26
2018-08-19T02:56:45.310Z,22.21
2018-08-19T02:59:12.990Z,22.22
2018-08-19T03:01:47.399Z,22.17
2018-08-19T03:04:20.742Z,22.16
2018-08-19T03:06:48.500Z,22.12
2018-08-19T03:09:16.226Z,22.16
2018-08-19T03:11:43.976Z,22.13
2018-08-19T03:14:11.662Z,22.15
2018-08-19T03:16:39.341Z,22.05
2018-08-19T03:19:07.011Z,22.01
2018-08-19T03:21:34.808Z,21.99
2018-08-19T03:24:02.522Z,21.94
2018-08-19T03:26:30.686Z,21.94
2018-08-19T03:29:05.436Z,21.86
2018-08-19T03:31:33.176Z,21.89
2018-08-19T03:34:00.855Z,21.94
2018-08-19T03:36:28.582Z,21.92
2018-08-19T03:39:11.778Z,21.95
2018-08-19T03:41:39.467Z,22.00
2018-08-19T03:44:07.151Z,22.00
2018-08-19T03:46:34.844Z,22.04
2018-08-19T03:49:02.682Z,22.04
2018-08-19T03:51:30.456Z,22.05
2018-08-19T03:53:58.160Z,22.03
2018-08-19T03:56:26.374Z,21.92
2018-08-19T03:58:57.875Z,21.87
2018-08-19T04:01:41.590Z,21.91
2018-08-19T04:04:09.990Z,21.94
2018-08-19T04:06:38.675Z,21.84
2018-08-19T04:09:06.511Z,21.78
2018-08-19T04:11:34.247Z,21.77
2018-08-19T04:14:02.193Z,21.77
2018-08-19T04:16:29.870Z,21.85
2018-08-19T04:19:04.363Z,21.82
2018-08-19T04:21:32.031Z,21.84
2018-08-19T04:23:59.728Z,21.91
2018-08-19T04:26:28.458Z,21.88
2018-08-19T04:28:56.103Z,21.84
2018-08-19T04:31:24.103Z,21.83
2018-08-19T04:33:53.007Z,21.73
2018-08-19T04:36:21.770Z,21.82
2018-08-19T04:38:49.702Z,21.82
2018-08-19T04:41:17.629Z,21.73
2018-08-19T04:43:46.194Z,21.73
2018-08-19T04:46:13.880Z,21.73
2018-08-19T04:48:44.055Z,21.79
2018-08-19T04:51:11.747Z,21.76
2018-08-19T04:53:39.446Z,21.67
2018-08-19T04:56:07.127Z,21.72
2018-08-19T04:58:34.799Z,21.71
2018-08-19T05:01:02.738Z,21.76
2018-08-19T05:03:30.440Z,21.84
2018-08-19T05:05:59.678Z,21.88
2018-08-19T05:08:27.500Z,21.90
2018-08-19T05:10:55.318Z,21.98
2018-08-19T05:13:22.974Z,21.97
2018-08-19T05:15:50.634Z,21.97
2018-08-19T05:18:18.358Z,21.96
2018-08-19T05:20:46.028Z,22.00
2018-08-19T05:23:13.724Z,21.93
2018-08-19T05:25:47.388Z,21.94
2018-08-19T05:28:16.774Z,21.89
2018-08-19T05:30:45.779Z,21.97
2018-08-19T05:33:13.740Z,21.99
2018-08-19T05:35:41.480Z,22.00
2018-08-19T05:38:09.250Z,21.97
2018-08-19T05:40:45.570Z,21.95
2018-08-19T05:43:13.543Z,21.91
2018-08-19T05:45:46.927Z,21.87
2018-08-19T05:48:14.886Z,21.87
2018-08-19T05:50:42.811Z,21.89
2018-08-19T05:53:10.541Z,21.95
2018-08-19T05:55:38.320Z,22.04
2018-08-19T05:58:05.954Z,22.04
2018-08-19T06:00:33.874Z,22.11
2018-08-19T06:03:02.298Z,22.18
2018-08-19T06:05:30.203Z,22.12
2018-08-19T06:08:07.582Z,22.18
2018-08-19T06:10:35.270Z,22.21
2018-08-19T06:13:02.953Z,22.22
2018-08-19T06:15:31.129Z,22.22
2018-08-19T06:17:58.835Z,22.23
2018-08-19T06:20:28.101Z,22.13
2018-08-19T06:22:55.847Z,22.17
2018-08-19T06:25:23.631Z,22.26
2018-08-19T06:27:54.449Z,22.23
2018-08-19T06:30:22.554Z,22.05
2018-08-19T06:32:50.282Z,22.15
2018-08-19T06:35:18.015Z,22.08
2018-08-19T06:37:45.750Z,22.05
2018-08-19T06:40:15.587Z,22.07
2018-08-19T06:45:11.342Z,21.97
2018-08-19T06:47:39.116Z,22.05
2018-08-19T06:50:28.270Z,22.15
2018-08-19T06:52:56.355Z,22.17
2018-08-19T06:55:24.202Z,22.17
2018-08-19T06:57:53.288Z,22.20
2018-08-19T07:00:25.150Z,22.22
2018-08-19T07:02:53.347Z,22.27
2018-08-19T07:05:21.071Z,22.27
2018-08-19T07:07:48.804Z,22.29
2018-08-19T07:10:25.446Z,22.32
2018-08-19T07:12:58.972Z,22.35
2018-08-19T07:15:26.746Z,22.38
2018-08-19T07:17:54.507Z,22.51
2018-08-19T07:20:22.190Z,22.49
2018-08-19T07:22:49.894Z,22.62
2018-08-19T07:25:17.560Z,22.54
2018-08-19T07:27:45.240Z,22.69
2018-08-19T07:30:12.959Z,22.66
2018-08-19T07:32:40.670Z,22.51
2018-08-19T07:35:08.367Z,22.56
2018-08-19T07:37:36.072Z,22.57
2018-08-19T07:40:04.591Z,22.55
2018-08-19T07:42:32.290Z,22.65
2018-08-19T07:44:59.954Z,22.66
2018-08-19T07:47:27.651Z,22.65
2018-08-19T07:49:55.323Z,22.63
2018-08-19T07:52:22.987Z,22.65
2018-08-19T07:54:50.759Z,22.68
2018-08-19T07:57:25.951Z,22.65
2018-08-19T07:59:53.815Z,22.64
2018-08-19T08:02:25.770Z,22.65
2018-08-19T08:04:53.648Z,22.62
2018-08-19T08:07:21.373Z,22.65
2018-08-19T08:09:49.262Z,22.64
2018-08-19T08:12:16.934Z,22.70
2018-08-19T08:14:48.948Z,22.69
2018-08-19T08:17:16.699Z,22.79
2018-08-19T08:19:50.215Z,22.69
2018-08-19T08:22:17.914Z,22.76
2018-08-19T08:24:45.671Z,22.87
2018-08-19T08:27:13.651Z,22.75
2018-08-19T08:29:41.746Z,22.79
2018-08-19T08:32:09.498Z,23.03
2018-08-19T08:34:37.302Z,23.03
2018-08-19T08:37:06.154Z,23.10
2018-08-19T08:39:34.953Z,23.03
2018-08-19T08:42:03.335Z,23.04
2018-08-19T08:44:31.277Z,23.11
2018-08-19T08:47:04.678Z,23.06
2018-08-19T08:49:36.998Z,23.10
2018-08-19T08:52:15.942Z,23.09
2018-08-19T08:54:49.506Z,23.22
2018-08-19T08:57:18.378Z,23.41
2018-08-19T08:59:46.090Z,23.60
2018-08-19T09:02:13.885Z,23.64
2018-08-19T09:04:41.629Z,23.77
2018-08-19T09:07:09.386Z,23.63
2018-08-19T09:09:38.817Z,23.87
2018-08-19T09:12:06.610Z,23.92
2018-08-19T09:14:34.303Z,24.13
2018-08-19T09:17:02.131Z,24.00
2018-08-19T09:19:29.867Z,23.78
2018-08-19T09:21:57.819Z,23.84
2018-08-19T09:24:26.567Z,24.03
2018-08-19T09:26:54.338Z,24.29
2018-08-19T09:29:22.058Z,24.33
2018-08-19T09:31:49.726Z,24.58
2018-08-19T09:34:17.387Z,24.34
2018-08-19T09:36:45.060Z,24.23
2018-08-19T09:39:12.792Z,24.23
2018-08-19T09:41:40.627Z,24.15
2018-08-19T09:44:08.306Z,24.31
2018-08-19T09:46:36.014Z,24.64
2018-08-19T09:49:03.751Z,24.70
2018-08-19T09:51:31.474Z,24.59
2018-08-19T09:53:59.146Z,24.94
2018-08-19T09:56:32.616Z,24.72
2018-08-19T09:59:05.394Z,24.55
2018-08-19T10:01:38.865Z,24.55
2018-08-19T10:04:12.875Z,24.52
2018-08-19T10:06:40.854Z,24.57
2018-08-19T10:09:08.567Z,24.57
2018-08-19T10:11:36.808Z,24.67
2018-08-19T10:14:04.555Z,24.65
2018-08-19T10:16:44.158Z,24.64
2018-08-19T10:19:12.998Z,24.83
2018-08-19T10:21:40.731Z,25.16
2018-08-19T10:24:21.474Z,25.21
2018-08-19T10:26:49.147Z,25.22
2018-08-19T10:29:17.316Z,25.20
2018-08-19T10:31:49.746Z,25.37
2018-08-19T10:34:17.926Z,25.31
2018-08-19T10:36:45.668Z,25.47
2018-08-19T10:39:15.178Z,25.53
2018-08-19T10:41:43.056Z,25.52
2018-08-19T10:44:10.818Z,25.44
2018-08-19T10:46:40.834Z,25.40
2018-08-19T10:49:08.911Z,25.47
2018-08-19T10:51:39.951Z,25.52
2018-08-19T10:54:07.635Z,25.48
2018-08-19T10:56:35.370Z,25.45
2018-08-19T10:59:03.144Z,25.51
2018-08-19T11:01:30.832Z,25.54
2018-08-19T11:03:58.532Z,25.67
2018-08-19T11:06:26.514Z,25.73
2018-08-19T11:08:56.460Z,25.92
2018-08-19T11:11:26.047Z,25.91
2018-08-19T11:13:53.714Z,26.10
2018-08-19T11:16:21.706Z,26.09
2018-08-19T11:18:49.547Z,26.22
2018-08-19T11:21:25.834Z,26.27
2018-08-19T11:23:54.275Z,26.26
2018-08-19T11:26:22.003Z,26.32
2018-08-19T11:28:52.997Z,26.38
2018-08-19T11:31:26.843Z,26.50
2018-08-19T11:33:56.355Z,26.56
2018-08-19T11:36:31.105Z,26.62
2018-08-19T11:38:59.003Z,26.54
2018-08-19T11:41:30.230Z,26.59
2018-08-19T11:43:58.514Z,26.67
2018-08-19T11:46:26.464Z,26.63
2018-08-19T11:49:00.047Z,26.61
2018-08-19T11:51:44.206Z,26.94
2018-08-19T11:54:13.253Z,26.83
2018-08-19T11:56:41.683Z,27.02
2018-08-19T11:59:09.414Z,27.23
2018-08-19T12:01:40.895Z,27.39
2018-08-19T12:04:10.939Z,27.38
2018-08-19T12:06:38.674Z,27.08
2018-08-19T12:09:34.103Z,27.19
2018-08-19T12:12:01.851Z,27.24
2018-08-19T12:14:33.103Z,27.37
2018-08-19T12:17:02.238Z,27.51
2018-08-19T12:19:30.913Z,27.52
2018-08-19T12:21:59.702Z,27.66
2018-08-19T12:24:32.995Z,27.51
2018-08-19T12:27:05.792Z,27.68
2018-08-19T12:29:34.666Z,27.80
2018-08-19T12:32:12.685Z,27.78
2018-08-19T12:34:46.833Z,27.85
2018-08-19T12:37:15.679Z,27.74
2018-08-19T12:39:43.444Z,27.60
2018-08-19T12:42:11.345Z,27.49
2018-08-19T12:44:39.582Z,27.60
2018-08-19T12:47:12.971Z,27.98
2018-08-19T12:49:42.094Z,28.02
2018-08-19T12:52:13.213Z,27.93
2018-08-19T12:54:43.705Z,27.89
2018-08-19T12:57:11.556Z,27.94
2018-08-19T12:59:39.602Z,28.07
2018-08-19T13:02:07.298Z,27.96
2018-08-19T13:04:38.155Z,28.14
2018-08-19T13:07:10.882Z,28.20
2018-08-19T13:09:38.667Z,28.13
2018-08-19T13:12:09.227Z,28.05
2018-08-19T13:14:37.271Z,28.12
2018-08-19T13:17:05.371Z,28.19
2018-08-19T13:19:33.058Z,28.18
2018-08-19T13:22:01.594Z,28.08
2018-08-19T13:24:36.869Z,28.21
2018-08-19T13:27:05.370Z,28.20
2018-08-19T13:29:33.441Z,28.23
2018-08-19T13:32:01.174Z,28.45
2018-08-19T13:34:29.027Z,28.36
2018-08-19T13:36:57.080Z,28.33
2018-08-19T13:39:25.663Z,28.49
2018-08-19T13:41:53.480Z,28.55
2018-08-19T13:44:21.199Z,28.49
2018-08-19T13:46:48.891Z,28.69
2018-08-19T13:49:22.048Z,28.78
2018-08-19T13:51:50.181Z,28.55
2018-08-19T13:54:18.262Z,28.69
2018-08-19T13:56:45.963Z,28.60
2018-08-19T13:59:14.301Z,28.56
2018-08-19T14:01:42.379Z,28.53
2018-08-19T14:04:10.383Z,28.56
2018-08-19T14:06:38.951Z,28.62
2018-08-19T14:09:07.810Z,28.54
2018-08-19T14:11:35.512Z,28.60
2018-08-19T14:14:03.227Z,28.64
2018-08-19T14:16:31.511Z,28.67
2018-08-19T14:18:59.227Z,28.65
2018-08-19T14:21:26.942Z,28.67
2018-08-19T14:23:54.612Z,28.76
2018-08-19T14:26:22.311Z,28.68
2018-08-19T14:28:49.966Z,28.69
2018-08-19T14:31:17.690Z,28.73
2018-08-19T14:33:45.362Z,28.63
2018-08-19T14:36:13.492Z,28.84
2018-08-19T14:38:41.419Z,28.72
2018-08-19T14:41:09.106Z,28.83
2018-08-19T14:44:07.827Z,28.83
2018-08-19T14:46:35.571Z,28.80
2018-08-19T14:49:04.391Z,28.87
2018-08-19T14:51:51.967Z,28.81
2018-08-19T14:54:19.715Z,28.84
2018-08-19T14:56:47.437Z,28.85
2018-08-19T14:59:15.316Z,28.93
2018-08-19T15:01:43.503Z,28.83
2018-08-19T15:04:16.239Z,28.98
2018-08-19T15:06:45.449Z,28.98
2018-08-19T15:09:18.279Z,29.03
2018-08-19T15:11:46.223Z,28.92
2018-08-19T15:14:17.470Z,28.91
2018-08-19T15:16:47.711Z,28.87
2018-08-19T15:19:15.657Z,29.08
2018-08-19T15:21:47.504Z,29.23
2018-08-19T15:24:15.201Z,29.23
2018-08-19T15:26:42.893Z,29.12
2018-08-19T15:29:15.338Z,29.19
2018-08-19T15:31:43.101Z,29.04
2018-08-19T15:34:10.798Z,29.05
2018-08-19T15:36:38.498Z,29.06
2018-08-19T15:39:07.495Z,29.02
2018-08-19T15:41:35.203Z,29.05
2018-08-19T15:44:02.948Z,29.08
2018-08-19T15:46:31.122Z,29.15
2018-08-19T15:48:58.863Z,29.19
2018-08-19T15:51:26.546Z,29.18
2018-08-19T15:53:54.206Z,29.36
2018-08-19T15:56:21.894Z,29.30
2018-08-19T15:58:49.615Z,29.36
2018-08-19T16:01:31.404Z,29.32
2018-08-19T16:04:16.323Z,29.35
2018-08-19T16:06:45.578Z,29.26
2018-08-19T16:09:15.506Z,29.28
2018-08-19T16:11:43.555Z,29.21
2018-08-19T16:14:22.299Z,29.30
2018-08-19T16:16:50.448Z,29.32
2018-08-19T16:19:18.147Z,29.48
2018-08-19T16:21:48.136Z,29.45
2018-08-19T16:24:15.871Z,29.32
2018-08-19T16:26:43.887Z,29.35
2018-08-19T16:29:12.124Z,29.47
2018-08-19T16:31:39.881Z,29.24
2018-08-19T16:34:07.696Z,29.30
2018-08-19T16:36:35.435Z,29.04
2018-08-19T16:39:05.593Z,28.92
2018-08-19T16:41:37.530Z,28.87
2018-08-19T16:44:05.470Z,28.96
2018-08-19T16:46:33.198Z,28.97
2018-08-19T16:49:01.207Z,28.97
2018-08-19T16:51:28.939Z,29.13
2018-08-19T16:53:56.634Z,28.98
2018-08-19T16:56:24.339Z,28.86
2018-08-19T16:58:52.022Z,29.06
2018-08-19T17:01:19.714Z,28.83
2018-08-19T17:03:47.378Z,28.86
2018-08-19T17:06:15.582Z,28.84
2018-08-19T17:08:43.527Z,28.66
2018-08-19T17:11:28.690Z,28.66
2018-08-19T17:14:01.321Z,28.68
2018-08-19T17:16:40.230Z,28.81
2018-08-19T17:19:07.910Z,28.73
2018-08-19T17:21:35.863Z,28.68
2018-08-19T17:24:04.726Z,28.64
2018-08-19T17:26:32.487Z,28.70
2018-08-19T17:29:06.326Z,28.70
2018-08-19T17:31:34.034Z,28.63
2018-08-19T17:34:06.393Z,28.64
2018-08-19T17:36:34.558Z,28.63
2018-08-19T17:39:02.418Z,28.50
2018-08-19T17:41:30.060Z,28.46
2018-08-19T17:44:02.314Z,28.45
2018-08-19T17:46:30.186Z,28.39
2018-08-19T17:48:58.102Z,28.35
2018-08-19T17:51:32.231Z,28.38
2018-08-19T17:53:59.974Z,28.37
2018-08-19T17:56:27.701Z,28.35
2018-08-19T17:58:55.411Z,28.36
2018-08-19T18:01:23.266Z,28.32
2018-08-19T18:03:51.195Z,28.28
2018-08-19T18:06:19.165Z,28.23
2018-08-19T18:08:47.958Z,28.18
2018-08-19T18:11:15.668Z,28.16
2018-08-19T18:13:43.375Z,28.13
2018-08-19T18:16:11.392Z,28.11
2018-08-19T18:18:39.269Z,28.10
2018-08-19T18:21:07.014Z,28.06
2018-08-19T18:23:34.688Z,28.00
2018-08-19T18:26:02.437Z,27.94
2018-08-19T18:28:31.218Z,27.88
2018-08-19T18:31:08.818Z,27.83
2018-08-19T18:33:48.265Z,27.79
2018-08-19T18:36:16.614Z,27.70
2018-08-19T18:38:44.374Z,27.66
2018-08-19T18:41:25.085Z,27.58
2018-08-19T18:43:54.769Z,27.54
2018-08-19T18:46:22.948Z,27.48
2018-08-19T18:49:01.471Z,27.42
2018-08-19T18:51:30.355Z,27.38
2018-08-19T18:53:58.327Z,27.32
2018-08-19T18:56:26.998Z,27.27
2018-08-19T18:58:54.812Z,27.23
2018-08-19T19:01:22.542Z,27.16
2018-08-19T19:03:50.198Z,27.13
2018-08-19T19:06:17.866Z,27.14
2018-08-19T19:08:45.529Z,27.11
2018-08-19T19:11:13.226Z,27.08
2018-08-19T19:13:40.912Z,27.03
2018-08-19T19:16:08.578Z,26.92
2018-08-19T19:18:36.251Z,26.85
2018-08-19T19:21:04.863Z,26.85
2018-08-19T19:23:36.942Z,26.87
2018-08-19T19:26:05.688Z,26.94
2018-08-19T19:28:33.411Z,26.84
2018-08-19T19:31:10.827Z,26.77
2018-08-19T19:33:38.511Z,26.70
2018-08-19T19:36:12.187Z,26.75
2018-08-19T19:38:46.834Z,26.73
2018-08-19T19:41:14.859Z,26.62
2018-08-19T19:43:42.527Z,26.69
2018-08-19T19:46:11.167Z,26.67
2018-08-19T19:48:38.886Z,26.68
2018-08-19T19:51:06.570Z,26.54
2018-08-19T19:53:34.235Z,26.44
2018-08-19T19:56:10.951Z,26.56
2018-08-19T19:58:38.665Z,26.47
2018-08-19T20:01:06.375Z,26.42
2018-08-19T20:03:43.626Z,26.38
2018-08-19T20:06:12.130Z,26.30
2018-08-19T20:08:39.792Z,26.18
2018-08-19T20:11:19.090Z,26.09
2018-08-19T20:13:47.535Z,26.08
2018-08-19T20:16:15.174Z,26.09
2018-08-19T20:18:42.893Z,26.09
2018-08-19T20:21:16.436Z,26.05
2018-08-19T20:23:44.122Z,26.08
2018-08-19T20:26:11.871Z,25.96
2018-08-19T20:28:39.741Z,25.98
2018-08-19T20:31:07.691Z,26.03
2018-08-19T20:33:35.348Z,26.06
2018-08-19T20:36:03.171Z,26.00
2018-08-19T20:38:31.120Z,25.92
2018-08-19T20:40:58.888Z,25.89
2018-08-19T20:43:26.606Z,25.90
2018-08-19T20:45:54.287Z,25.81
2018-08-19T20:48:22.457Z,25.76
2018-08-19T20:50:50.346Z,25.66
2018-08-19T20:53:18.485Z,25.68
2018-08-19T20:55:46.515Z,25.74
2018-08-19T20:58:14.215Z,25.67
2018-08-19T21:00:42.050Z,25.54
2018-08-19T21:03:13.388Z,25.58
2018-08-19T21:05:41.063Z,25.60
2018-08-19T21:08:13.518Z,25.48
2018-08-19T21:10:42.406Z,25.43
2018-08-19T21:13:13.244Z,25.42
2018-08-19T21:15:42.411Z,25.36
2018-08-19T21:18:10.180Z,25.31
2018-08-19T21:20:37.886Z,25.29
2018-08-19T21:23:05.996Z,25.35
2018-08-19T21:25:35.006Z,25.27
2018-08-19T21:28:02.763Z,25.34
2018-08-19T21:30:30.469Z,25.20
2018-08-19T21:32:58.123Z,25.11
2018-08-19T21:35:29.711Z,25.11
2018-08-19T21:37:57.411Z,25.01
2018-08-19T21:40:42.304Z,25.08
2018-08-19T21:43:10.149Z,25.12
2018-08-19T21:45:38.202Z,25.30
2018-08-19T21:48:11.386Z,25.31
2018-08-19T21:50:39.587Z,25.29
2018-08-19T21:53:10.049Z,25.11
2018-08-19T21:55:39.074Z,25.18
2018-08-19T21:58:07.288Z,25.01
2018-08-19T22:00:41.095Z,24.95
2018-08-19T22:03:19.047Z,24.94
2018-08-19T22:05:47.739Z,24.84
2018-08-19T22:08:15.514Z,24.81
2018-08-19T22:10:44.202Z,24.86
2018-08-19T22:13:12.061Z,24.74
2018-08-19T22:15:40.906Z,24.78
2018-08-19T22:18:11.598Z,24.73
2018-08-19T22:20:47.510Z,24.65
2018-08-19T22:23:15.186Z,24.66
2018-08-19T22:25:42.878Z,24.74
2018-08-19T22:28:10.647Z,24.70
2018-08-19T22:30:38.322Z,24.51
2018-08-19T22:33:06.892Z,24.74
2018-08-19T22:35:34.590Z,24.64
2018-08-19T22:38:06.343Z,24.53
2018-08-19T22:40:35.873Z,24.69
2018-08-19T22:43:04.399Z,24.58
2018-08-19T22:45:32.070Z,24.39
2018-08-19T22:48:03.646Z,24.32
2018-08-19T22:50:31.361Z,24.47
2018-08-19T22:52:59.018Z,24.44
2018-08-19T22:55:26.691Z,24.39
2018-08-19T22:57:59.013Z,24.36
2018-08-19T23:00:27.313Z,24.30
2018-08-19T23:02:55.267Z,24.24
2018-08-19T23:05:22.938Z,24.35
2018-08-19T23:07:50.640Z,24.37
2018-08-19T23:10:18.338Z,24.27
2018-08-19T23:12:45.995Z,24.18
2018-08-19T23:15:31.183Z,24.13
2018-08-19T23:17:58.885Z,24.02
2018-08-19T23:20:26.563Z,24.08
2018-08-19T23:22:54.251Z,24.03
2018-08-19T23:25:21.927Z,23.93
2018-08-19T23:27:49.591Z,24.12
2018-08-19T23:30:17.282Z,24.08
2018-08-19T23:32:44.945Z,24.05
2018-08-19T23:35:12.639Z,23.88
2018-08-19T23:37:41.139Z,23.98
2018-08-19T23:40:08.815Z,23.91
2018-08-19T23:42:36.491Z,23.84
2018-08-19T23:45:05.563Z,23.78
2018-08-19T23:47:33.228Z,23.76
2018-08-19T23:50:01.176Z,23.78
2018-08-19T23:52:28.848Z,23.72
2018-08-19T23:54:57.363Z,23.65
2018-08-19T23:57:25.058Z,23.72
2018-08-19T23:59:52.741Z,23.66
